createdAt,value
2022-12-09T00:00:17.602Z,1.7
2022-12-09T00:02:32.253Z,1.7
2022-12-09T00:03:39.102Z,1.6
2022-12-09T00:04:46.191Z,1.6
2022-12-09T00:05:52.660Z,1.6
2022-12-09T00:06:59.625Z,1.6
2022-12-09T00:09:14.094Z,1.6
2022-12-09T00:10:21.237Z,1.6
2022-12-09T00:11:27.530Z,1.6
2022-12-09T00:12:34.691Z,1.6
2022-12-09T00:13:41.785Z,1.6
2022-12-09T00:14:49.203Z,1.5
2022-12-09T00:15:56.048Z,1.5
2022-12-09T00:17:02.771Z,1.5
2022-12-09T00:18:09.798Z,1.5
2022-12-09T00:19:16.827Z,1.4
2022-12-09T00:20:23.984Z,1.5
2022-12-09T00:21:31.015Z,1.5
2022-12-09T00:22:37.557Z,1.5
2022-12-09T00:23:44.701Z,1.5
2022-12-09T00:24:51.897Z,1.5
2022-12-09T00:25:58.988Z,1.5
2022-12-09T00:27:06.000Z,1.5
2022-12-09T00:28:12.563Z,1.5
2022-12-09T00:29:19.698Z,1.6
2022-12-09T00:30:26.782Z,1.6
2022-12-09T00:31:34.205Z,1.6
2022-12-09T00:32:41.424Z,1.6
2022-12-09T00:33:47.846Z,1.6
2022-12-09T00:34:54.706Z,1.6
2022-12-09T00:36:01.796Z,1.6
2022-12-09T00:37:09.145Z,1.6
2022-12-09T00:39:22.817Z,1.6
2022-12-09T00:40:29.671Z,1.5
2022-12-09T00:41:36.906Z,1.5
2022-12-09T00:43:51.034Z,1.6
2022-12-09T00:44:58.782Z,1.6
2022-12-09T00:46:04.865Z,1.6
2022-12-09T00:47:12.018Z,1.6
2022-12-09T00:48:19.038Z,1.6
2022-12-09T00:49:26.076Z,1.6
2022-12-09T00:50:32.634Z,1.6
2022-12-09T00:51:39.791Z,1.6
2022-12-09T00:52:47.054Z,1.6
2022-12-09T00:53:54.072Z,1.6
2022-12-09T00:55:01.184Z,1.6
2022-12-09T00:56:07.626Z,1.6
2022-12-09T00:57:14.851Z,1.6
2022-12-09T00:58:21.858Z,1.6
2022-12-09T00:59:29.154Z,1.6
2022-12-09T01:00:36.342Z,1.6
2022-12-09T01:01:42.809Z,1.6
2022-12-09T01:02:49.937Z,1.6
2022-12-09T01:03:57.198Z,1.6
2022-12-09T01:05:04.215Z,1.6
2022-12-09T01:06:11.342Z,1.6
2022-12-09T01:07:17.838Z,1.6
2022-12-09T01:08:25.167Z,1.6
2022-12-09T01:09:32.290Z,1.6
2022-12-09T01:10:39.261Z,1.7
2022-12-09T01:11:46.500Z,1.7
2022-12-09T01:12:52.644Z,1.8
2022-12-09T01:13:59.721Z,1.8
2022-12-09T01:15:06.989Z,1.8
2022-12-09T01:16:14.057Z,1.9
2022-12-09T01:17:21.292Z,1.9
2022-12-09T01:18:27.640Z,1.9
2022-12-09T01:19:34.914Z,1.9
2022-12-09T01:20:42.456Z,1.9
2022-12-09T01:21:49.003Z,1.9
2022-12-09T01:22:55.599Z,2
2022-12-09T01:25:09.881Z,2
2022-12-09T01:26:17.109Z,2
2022-12-09T01:27:23.972Z,2
2022-12-09T01:28:30.581Z,2
2022-12-09T01:29:37.815Z,2
2022-12-09T01:30:44.824Z,2
2022-12-09T01:31:52.244Z,2
2022-12-09T01:32:59.335Z,2.1
2022-12-09T01:34:05.758Z,2.1
2022-12-09T01:35:12.899Z,2.1
2022-12-09T01:37:27.094Z,2.1
2022-12-09T01:38:34.267Z,2.1
2022-12-09T01:39:40.575Z,2.1
2022-12-09T01:40:47.801Z,2.1
2022-12-09T01:43:01.975Z,2.1
2022-12-09T01:44:09.304Z,2
2022-12-09T01:45:15.713Z,2
2022-12-09T01:46:22.782Z,2
2022-12-09T01:47:29.883Z,2.1
2022-12-09T01:48:37.063Z,2
2022-12-09T01:49:44.236Z,2
2022-12-09T01:50:50.606Z,2
2022-12-09T01:51:57.717Z,2
2022-12-09T01:53:05.100Z,2
2022-12-09T01:54:12.096Z,2
2022-12-09T01:55:19.130Z,2
2022-12-09T01:56:25.678Z,2
2022-12-09T01:57:32.869Z,2
2022-12-09T01:58:39.799Z,2
2022-12-09T01:59:47.223Z,2
2022-12-09T02:00:54.053Z,1.9
2022-12-09T02:02:00.831Z,1.8
2022-12-09T02:03:07.801Z,1.8
2022-12-09T02:04:15.158Z,1.8
2022-12-09T02:06:29.387Z,1.7
2022-12-09T02:07:35.680Z,1.7
2022-12-09T02:08:42.843Z,1.6
2022-12-09T02:09:49.792Z,1.6
2022-12-09T02:10:56.912Z,1.6
2022-12-09T02:12:04.102Z,1.6
2022-12-09T02:13:11.749Z,1.6
2022-12-09T02:14:17.915Z,1.6
2022-12-09T02:15:25.196Z,1.6
2022-12-09T02:16:32.031Z,1.6
2022-12-09T02:17:39.272Z,1.5
2022-12-09T02:18:45.636Z,1.5
2022-12-09T02:19:53.027Z,1.5
2022-12-09T02:20:59.906Z,1.5
2022-12-09T02:22:07.015Z,1.4
2022-12-09T02:23:14.635Z,1.4
2022-12-09T02:24:20.729Z,1.4
2022-12-09T02:25:27.851Z,1.4
2022-12-09T02:26:35.196Z,1.5
2022-12-09T02:27:42.074Z,1.5
2022-12-09T02:28:49.035Z,1.5
2022-12-09T02:29:55.854Z,1.5
2022-12-09T02:31:02.907Z,1.5
2022-12-09T02:32:09.944Z,1.5
2022-12-09T02:33:17.320Z,1.5
2022-12-09T02:34:24.087Z,1.5
2022-12-09T02:35:30.673Z,1.4
2022-12-09T02:36:37.810Z,1.4
2022-12-09T02:37:44.915Z,1.4
2022-12-09T02:38:52.245Z,1.4
2022-12-09T02:39:59.358Z,1.4
2022-12-09T02:41:05.936Z,1.4
2022-12-09T02:42:12.898Z,1.4
2022-12-09T02:43:20.203Z,1.4
2022-12-09T02:44:26.970Z,1.4
2022-12-09T02:47:48.141Z,1.3
2022-12-09T02:48:55.237Z,1.3
2022-12-09T02:50:02.176Z,1.2
2022-12-09T02:51:09.079Z,1.2
2022-12-09T02:52:15.703Z,1.2
2022-12-09T02:53:22.991Z,1.2
2022-12-09T02:54:30.091Z,1.1
2022-12-09T02:55:36.991Z,1.1
2022-12-09T02:56:44.160Z,1.1
2022-12-09T02:57:50.702Z,1.1
2022-12-09T02:58:58.032Z,1
2022-12-09T03:00:05.462Z,1.1
2022-12-09T03:01:12.094Z,1
2022-12-09T03:02:19.196Z,1
2022-12-09T03:03:25.811Z,1
2022-12-09T03:05:40.101Z,1
2022-12-09T03:06:46.995Z,1
2022-12-09T03:07:54.141Z,1
2022-12-09T03:09:01.064Z,1
2022-12-09T03:10:08.224Z,1
2022-12-09T03:11:15.311Z,1
2022-12-09T03:12:22.018Z,1
2022-12-09T03:13:29.148Z,1
2022-12-09T03:14:35.723Z,1
2022-12-09T03:15:46.014Z,1
2022-12-09T03:16:49.974Z,1
2022-12-09T03:17:57.115Z,1
2022-12-09T03:19:04.534Z,1
2022-12-09T03:20:11.468Z,1
2022-12-09T03:21:17.780Z,1
2022-12-09T03:22:25.011Z,1
2022-12-09T03:23:32.090Z,1
2022-12-09T03:24:39.528Z,1
2022-12-09T03:25:45.713Z,1
2022-12-09T03:26:53.177Z,1
2022-12-09T03:29:07.069Z,1
2022-12-09T03:30:14.143Z,1
2022-12-09T03:31:20.958Z,1
2022-12-09T03:32:28.250Z,1
2022-12-09T03:33:35.057Z,1
2022-12-09T03:34:42.430Z,1
2022-12-09T03:35:48.758Z,0.9
2022-12-09T03:36:55.896Z,0.9
2022-12-09T03:38:02.877Z,0.9
2022-12-09T03:39:09.939Z,0.9
2022-12-09T03:40:17.466Z,0.9
2022-12-09T03:41:24.917Z,0.9
2022-12-09T03:42:30.988Z,0.9
2022-12-09T03:43:38.212Z,0.8
2022-12-09T03:44:45.214Z,0.8
2022-12-09T03:45:52.136Z,0.8
2022-12-09T03:46:58.703Z,0.8
2022-12-09T03:48:05.841Z,0.8
2022-12-09T03:50:20.024Z,0.8
2022-12-09T03:51:27.490Z,0.8
2022-12-09T03:52:33.710Z,0.8
2022-12-09T03:53:40.841Z,0.8
2022-12-09T03:54:47.889Z,0.8
2022-12-09T03:55:54.979Z,0.8
2022-12-09T03:57:02.236Z,0.8
2022-12-09T03:58:08.942Z,0.8
2022-12-09T03:59:16.202Z,0.8
2022-12-09T04:00:23.187Z,0.8
2022-12-09T04:01:30.495Z,0.8
2022-12-09T04:02:37.228Z,0.8
2022-12-09T04:03:44.031Z,0.8
2022-12-09T04:04:51.227Z,0.8
2022-12-09T04:05:57.862Z,0.8
2022-12-09T04:07:05.149Z,0.8
2022-12-09T04:08:12.233Z,0.8
2022-12-09T04:10:26.110Z,0.8
2022-12-09T04:11:32.922Z,0.8
2022-12-09T04:12:40.405Z,0.8
2022-12-09T04:13:47.422Z,0.8
2022-12-09T04:14:53.773Z,0.8
2022-12-09T04:16:00.779Z,0.8
2022-12-09T04:17:08.334Z,0.8
2022-12-09T04:18:15.423Z,0.7
2022-12-09T04:19:22.460Z,0.7
2022-12-09T04:20:28.667Z,0.7
2022-12-09T04:21:35.936Z,0.7
2022-12-09T04:22:43.264Z,0.8
2022-12-09T04:23:50.214Z,0.8
2022-12-09T04:24:57.337Z,0.8
2022-12-09T04:26:03.679Z,0.8
2022-12-09T04:27:11.948Z,0.8
2022-12-09T04:28:17.963Z,0.8
2022-12-09T04:29:25.268Z,0.8
2022-12-09T04:30:32.276Z,0.8
2022-12-09T04:31:38.892Z,0.8
2022-12-09T04:33:52.949Z,0.8
2022-12-09T04:35:00.053Z,0.8
2022-12-09T04:36:07.097Z,0.8
2022-12-09T04:37:13.791Z,0.9
2022-12-09T04:38:20.867Z,1
2022-12-09T04:39:28.258Z,1
2022-12-09T04:40:35.462Z,1
2022-12-09T04:41:42.565Z,1
2022-12-09T04:42:48.846Z,1
2022-12-09T04:43:56.026Z,1
2022-12-09T04:45:03.069Z,1
2022-12-09T04:46:10.348Z,1
2022-12-09T04:47:17.255Z,1
2022-12-09T04:48:24.030Z,1
2022-12-09T04:49:30.859Z,1
2022-12-09T04:51:45.193Z,0.9
2022-12-09T04:53:58.752Z,0.9
2022-12-09T04:55:06.190Z,0.9
2022-12-09T04:56:12.983Z,0.8
2022-12-09T04:57:20.219Z,0.8
2022-12-09T04:58:27.131Z,0.8
2022-12-09T04:59:33.838Z,0.8
2022-12-09T05:00:40.921Z,0.8
2022-12-09T05:01:48.370Z,0.8
2022-12-09T05:02:55.496Z,0.8
2022-12-09T05:04:02.442Z,0.8
2022-12-09T05:05:09.146Z,0.8
2022-12-09T05:06:16.315Z,0.8
2022-12-09T05:07:23.313Z,0.8
2022-12-09T05:08:31.882Z,0.8
2022-12-09T05:09:37.831Z,0.8
2022-12-09T05:10:43.825Z,0.8
2022-12-09T05:11:51.284Z,0.7
2022-12-09T05:12:58.302Z,0.7
2022-12-09T05:14:05.467Z,0.7
2022-12-09T05:15:12.680Z,0.7
2022-12-09T05:16:19.169Z,0.7
2022-12-09T05:17:26.209Z,0.7
2022-12-09T05:18:33.135Z,0.7
2022-12-09T05:19:40.489Z,0.7
2022-12-09T05:20:47.186Z,0.7
2022-12-09T05:21:54.095Z,0.8
2022-12-09T05:23:05.684Z,0.8
2022-12-09T05:24:08.298Z,0.8
2022-12-09T05:25:15.152Z,0.8
2022-12-09T05:26:22.162Z,0.8
2022-12-09T05:27:28.911Z,0.8
2022-12-09T05:28:36.151Z,0.8
2022-12-09T05:29:43.168Z,0.8
2022-12-09T05:30:50.409Z,0.8
2022-12-09T05:33:04.231Z,0.7
2022-12-09T05:34:10.969Z,0.7
2022-12-09T05:35:18.152Z,0.7
2022-12-09T05:36:25.397Z,0.7
2022-12-09T05:37:31.815Z,0.7
2022-12-09T05:38:38.769Z,0.7
2022-12-09T05:39:45.990Z,0.7
2022-12-09T05:40:53.152Z,0.8
2022-12-09T05:42:00.582Z,0.8
2022-12-09T05:43:06.783Z,0.9
2022-12-09T05:44:14.056Z,1
2022-12-09T05:45:20.930Z,1
2022-12-09T05:46:28.260Z,1
2022-12-09T05:47:35.386Z,1.1
2022-12-09T05:48:41.960Z,1.1
2022-12-09T05:49:49.010Z,1.2
2022-12-09T05:50:55.990Z,1.2
2022-12-09T05:52:03.296Z,1.2
2022-12-09T05:53:10.139Z,1.2
2022-12-09T05:54:16.774Z,1.2
2022-12-09T05:55:24.049Z,1.2
2022-12-09T05:57:38.192Z,1.2
2022-12-09T05:58:45.591Z,1.1
2022-12-09T05:59:51.892Z,1.1
2022-12-09T06:02:09.995Z,1
2022-12-09T06:03:13.638Z,1
2022-12-09T06:04:20.325Z,1
2022-12-09T06:05:27.312Z,1.1
2022-12-09T06:06:34.199Z,1
2022-12-09T06:07:41.281Z,1.1
2022-12-09T06:08:48.125Z,1.1
2022-12-09T06:09:55.646Z,1.1
2022-12-09T06:11:02.297Z,1.2
2022-12-09T06:12:08.975Z,1.4
2022-12-09T06:14:23.135Z,1.6
2022-12-09T06:15:33.482Z,1.8
2022-12-09T06:16:37.358Z,1.9
2022-12-09T06:17:44.046Z,2
2022-12-09T06:18:51.527Z,2
2022-12-09T06:19:58.158Z,2.2
2022-12-09T06:21:05.471Z,2.3
2022-12-09T06:22:12.171Z,2.4
2022-12-09T06:23:18.923Z,2.5
2022-12-09T06:24:26.350Z,2.6
2022-12-09T06:25:33.272Z,2.7
2022-12-09T06:26:40.557Z,2.8
2022-12-09T06:27:46.784Z,2.8
2022-12-09T06:28:54.236Z,2.9
2022-12-09T06:30:01.260Z,2.9
2022-12-09T06:31:08.848Z,3
2022-12-09T06:32:15.325Z,3
2022-12-09T06:33:52.380Z,3
2022-12-09T06:34:29.064Z,3
2022-12-09T06:35:36.285Z,3
2022-12-09T06:36:43.561Z,3
2022-12-09T06:37:51.129Z,3.1
2022-12-09T06:38:56.924Z,3.1
2022-12-09T06:40:04.010Z,3.1
2022-12-09T06:41:11.141Z,3.2
2022-12-09T06:42:18.072Z,3.2
2022-12-09T06:43:25.350Z,3.2
2022-12-09T06:44:32.038Z,3.2
2022-12-09T06:45:38.954Z,3.2
2022-12-09T06:46:46.400Z,3.2
2022-12-09T06:47:53.553Z,3.3
2022-12-09T06:49:00.345Z,3.3
2022-12-09T06:50:08.004Z,3.3
2022-12-09T06:51:14.329Z,3.3
2022-12-09T06:52:21.527Z,3.3
2022-12-09T06:53:28.325Z,3.2
2022-12-09T06:55:42.140Z,3.2
2022-12-09T06:56:49.167Z,3.2
2022-12-09T06:57:56.325Z,3.2
2022-12-09T06:59:03.433Z,3.2
2022-12-09T07:01:17.360Z,3
2022-12-09T07:02:24.291Z,3
2022-12-09T07:03:31.187Z,3
2022-12-09T07:04:38.535Z,2.9
2022-12-09T07:05:46.209Z,2.8
2022-12-09T07:06:52.045Z,2.8
2022-12-09T07:07:58.938Z,2.8
2022-12-09T07:09:06.387Z,2.7
2022-12-09T07:10:13.267Z,2.6
2022-12-09T07:11:20.520Z,2.6
2022-12-09T07:12:27.867Z,2.5
2022-12-09T07:13:33.980Z,2.4
2022-12-09T07:14:41.227Z,2.4
2022-12-09T07:15:48.508Z,2.4
2022-12-09T07:16:55.395Z,2.4
2022-12-09T07:18:02.038Z,2.3
2022-12-09T07:19:09.473Z,2.2
2022-12-09T07:20:16.458Z,2.2
2022-12-09T07:21:23.401Z,2.2
2022-12-09T07:22:30.317Z,2.2
2022-12-09T07:23:37.115Z,2.2
2022-12-09T07:24:44.030Z,2.1
2022-12-09T07:25:51.449Z,2.1
2022-12-09T07:27:01.873Z,2.1
2022-12-09T07:28:05.524Z,2.2
2022-12-09T07:30:18.997Z,2.2
2022-12-09T07:31:26.555Z,2.2
2022-12-09T07:32:33.758Z,2.3
2022-12-09T07:33:40.058Z,2.4
2022-12-09T07:34:47.169Z,2.4
2022-12-09T07:35:54.002Z,2.4
2022-12-09T07:37:01.276Z,2.5
2022-12-09T07:38:08.178Z,2.6
2022-12-09T07:39:14.872Z,2.6
2022-12-09T07:40:22.153Z,2.7
2022-12-09T07:41:29.121Z,2.8
2022-12-09T07:42:36.102Z,2.8
2022-12-09T07:43:43.358Z,2.8
2022-12-09T07:44:49.840Z,2.8
2022-12-09T07:45:57.361Z,2.7
2022-12-09T07:47:04.195Z,2.7
2022-12-09T07:48:11.242Z,2.7
2022-12-09T07:49:18.357Z,2.6
2022-12-09T07:50:25.329Z,2.6
2022-12-09T07:51:32.037Z,2.6
2022-12-09T07:52:39.078Z,2.6
2022-12-09T07:53:46.190Z,2.6
2022-12-09T07:54:53.467Z,2.6
2022-12-09T07:55:59.778Z,2.6
2022-12-09T07:57:06.900Z,2.6
2022-12-09T07:58:14.164Z,2.6
2022-12-09T07:59:21.208Z,2.6
2022-12-09T08:00:28.719Z,2.6
2022-12-09T08:01:35.143Z,2.6
2022-12-09T08:02:42.158Z,2.5
2022-12-09T08:04:56.320Z,2.5
2022-12-09T08:06:03.880Z,2.4
2022-12-09T08:07:10.056Z,2.4
2022-12-09T08:08:17.649Z,2.4
2022-12-09T08:09:24.504Z,2.3
2022-12-09T08:10:31.613Z,2.3
2022-12-09T08:11:38.565Z,2.2
2022-12-09T08:12:44.927Z,2.2
2022-12-09T08:13:52.415Z,2.1
2022-12-09T08:14:59.078Z,2.1
2022-12-09T08:16:06.421Z,2
2022-12-09T08:17:13.503Z,2
2022-12-09T08:18:20.429Z,2
2022-12-09T08:19:27.177Z,2
2022-12-09T08:20:34.485Z,1.9
2022-12-09T08:21:41.715Z,1.9
2022-12-09T08:22:48.223Z,1.9
2022-12-09T08:23:54.982Z,1.8
2022-12-09T08:25:02.142Z,1.8
2022-12-09T08:26:09.055Z,1.8
2022-12-09T08:27:16.348Z,1.8
2022-12-09T08:28:23.378Z,1.8
2022-12-09T08:29:30.039Z,1.8
2022-12-09T08:30:37.272Z,1.8
2022-12-09T08:31:44.467Z,1.8
2022-12-09T08:32:51.601Z,1.8
2022-12-09T08:33:58.575Z,1.8
2022-12-09T08:35:05.480Z,1.7
2022-12-09T08:36:12.350Z,1.7
2022-12-09T08:37:19.469Z,1.7
2022-12-09T08:38:26.347Z,1.7
2022-12-09T08:39:33.701Z,1.6
2022-12-09T08:40:40.178Z,1.6
2022-12-09T08:41:47.278Z,1.6
2022-12-09T08:42:54.329Z,1.6
2022-12-09T08:44:01.193Z,1.6
2022-12-09T08:45:08.605Z,1.6
2022-12-09T08:46:15.388Z,1.5
2022-12-09T08:47:22.220Z,1.5
2022-12-09T08:48:29.575Z,1.4
2022-12-09T08:49:36.549Z,1.4
2022-12-09T08:50:43.426Z,1.4
2022-12-09T08:51:50.183Z,1.4
2022-12-09T08:52:57.447Z,1.4
2022-12-09T08:54:04.284Z,1.4
2022-12-09T08:55:11.495Z,1.4
2022-12-09T08:56:18.302Z,1.4
2022-12-09T08:58:32.116Z,1.4
2022-12-09T08:59:45.056Z,1.4
2022-12-09T09:00:46.233Z,1.4
2022-12-09T09:01:53.543Z,1.4
2022-12-09T09:02:59.975Z,1.4
2022-12-09T09:04:07.652Z,1.4
2022-12-09T09:05:14.704Z,1.4
2022-12-09T09:06:21.549Z,1.4
2022-12-09T09:08:35.089Z,1.4
2022-12-09T09:09:42.163Z,1.4
2022-12-09T09:10:49.281Z,1.4
2022-12-09T09:11:56.627Z,1.3
2022-12-09T09:13:03.665Z,1.3
2022-12-09T09:14:10.144Z,1.3
2022-12-09T09:15:17.488Z,1.3
2022-12-09T09:16:23.841Z,1.3
2022-12-09T09:17:31.680Z,1.2
2022-12-09T09:18:37.924Z,1.2
2022-12-09T09:19:45.127Z,1.2
2022-12-09T09:20:52.414Z,1.2
2022-12-09T09:21:59.271Z,1.2
2022-12-09T09:23:06.750Z,1.2
2022-12-09T09:24:12.922Z,1.2
2022-12-09T09:25:20.004Z,1.2
2022-12-09T09:26:27.476Z,1.2
2022-12-09T09:27:34.201Z,1.2
2022-12-09T09:28:41.326Z,1.2
2022-12-09T09:29:48.279Z,1.2
2022-12-09T09:30:55.084Z,1.2
2022-12-09T09:32:02.715Z,1.2
2022-12-09T09:33:09.560Z,1.2
2022-12-09T09:34:16.436Z,1.1
2022-12-09T09:35:22.859Z,1.1
2022-12-09T09:36:30.215Z,1.1
2022-12-09T09:37:37.689Z,1.1
2022-12-09T09:38:44.617Z,1
2022-12-09T09:39:51.406Z,1
2022-12-09T09:40:58.230Z,1
2022-12-09T09:42:08.706Z,1
2022-12-09T09:43:12.236Z,1
2022-12-09T09:44:19.616Z,1
2022-12-09T09:45:26.247Z,1
2022-12-09T09:46:33.304Z,1
2022-12-09T09:47:40.236Z,1
2022-12-09T09:48:47.158Z,1
2022-12-09T09:49:54.419Z,1
2022-12-09T09:51:01.551Z,1
2022-12-09T09:52:07.959Z,1
2022-12-09T09:53:15.502Z,1
2022-12-09T09:54:22.255Z,1
2022-12-09T09:55:29.172Z,1
2022-12-09T09:56:36.227Z,1
2022-12-09T09:57:43.145Z,1
2022-12-09T09:58:50.277Z,1
2022-12-09T10:00:00.783Z,1
2022-12-09T10:01:04.426Z,1
2022-12-09T10:02:11.645Z,1
2022-12-09T10:03:18.616Z,1
2022-12-09T10:04:25.560Z,1
2022-12-09T10:05:32.816Z,1
2022-12-09T10:06:39.262Z,1
2022-12-09T10:07:47.180Z,1
2022-12-09T10:08:53.264Z,1
2022-12-09T10:10:00.132Z,1.1
2022-12-09T10:12:14.536Z,1
2022-12-09T10:13:21.782Z,1
2022-12-09T10:14:28.405Z,1
2022-12-09T10:15:35.320Z,1
2022-12-09T10:16:42.645Z,1.1
2022-12-09T10:17:49.805Z,1
2022-12-09T10:18:57.844Z,1
2022-12-09T10:20:02.997Z,1
2022-12-09T10:21:10.361Z,1
2022-12-09T10:22:17.238Z,1
2022-12-09T10:23:24.387Z,1
2022-12-09T10:24:37.381Z,1
2022-12-09T10:26:45.147Z,1
2022-12-09T10:27:52.574Z,1
2022-12-09T10:28:59.414Z,1
2022-12-09T10:30:07.121Z,1
2022-12-09T10:31:13.017Z,1
2022-12-09T10:32:20.574Z,1
2022-12-09T10:33:27.658Z,1.1
2022-12-09T10:34:34.776Z,1.1
2022-12-09T10:35:41.680Z,1.1
2022-12-09T10:36:48.093Z,1.1
2022-12-09T10:37:55.111Z,1.1
2022-12-09T10:40:09.787Z,1.2
2022-12-09T10:41:16.618Z,1.2
2022-12-09T10:42:23.344Z,1.2
2022-12-09T10:43:30.125Z,1.2
2022-12-09T10:44:37.550Z,1.2
2022-12-09T10:46:16.674Z,1.2
2022-12-09T10:46:51.756Z,1.2
2022-12-09T10:47:58.173Z,1.2
2022-12-09T10:49:05.099Z,1.2
2022-12-09T10:50:12.764Z,1.2
2022-12-09T10:51:19.647Z,1.2
2022-12-09T10:52:26.456Z,1.2
2022-12-09T10:53:33.166Z,1.2
2022-12-09T10:54:40.117Z,1.2
2022-12-09T10:55:47.568Z,1.2
2022-12-09T10:56:54.556Z,1.2
2022-12-09T10:58:01.512Z,1.2
2022-12-09T10:59:08.058Z,1.2
2022-12-09T11:00:15.862Z,1.2
2022-12-09T11:01:22.323Z,1.2
2022-12-09T11:03:36.632Z,1.3
2022-12-09T11:04:43.431Z,1.4
2022-12-09T11:05:50.399Z,1.4
2022-12-09T11:06:59.722Z,1.5
2022-12-09T11:08:04.937Z,1.6
2022-12-09T11:09:11.071Z,1.6
2022-12-09T11:10:19.427Z,1.6
2022-12-09T11:11:25.570Z,1.6
2022-12-09T11:12:36.671Z,1.6
2022-12-09T11:13:39.303Z,1.6
2022-12-09T11:15:53.597Z,1.7
2022-12-09T11:17:00.521Z,1.7
2022-12-09T11:18:07.364Z,1.7
2022-12-09T11:19:14.314Z,1.8
2022-12-09T11:21:28.203Z,1.8
2022-12-09T11:22:35.446Z,1.8
2022-12-09T11:23:42.564Z,1.8
2022-12-09T11:24:49.781Z,1.8
2022-12-09T11:25:56.388Z,1.8
2022-12-09T11:27:03.257Z,1.8
2022-12-09T11:28:10.030Z,1.7
2022-12-09T11:29:17.138Z,1.7
2022-12-09T11:30:25.138Z,1.7
2022-12-09T11:31:33.313Z,1.7
2022-12-09T11:32:38.431Z,1.7
2022-12-09T11:33:45.710Z,1.7
2022-12-09T11:34:52.802Z,1.6
2022-12-09T11:35:59.879Z,1.6
2022-12-09T11:37:05.893Z,1.6
2022-12-09T11:38:12.983Z,1.6
2022-12-09T11:39:20.072Z,1.6
2022-12-09T11:40:27.156Z,1.6
2022-12-09T11:41:34.293Z,1.5
2022-12-09T11:42:40.940Z,1.5
2022-12-09T11:43:47.980Z,1.5
2022-12-09T11:44:55.110Z,1.5
2022-12-09T11:46:02.227Z,1.5
2022-12-09T11:47:09.448Z,1.4
2022-12-09T11:48:32.005Z,1.4
2022-12-09T11:49:22.980Z,1.4
2022-12-09T11:50:30.118Z,1.4
2022-12-09T11:51:37.165Z,1.4
2022-12-09T11:52:44.294Z,1.4
2022-12-09T11:54:57.990Z,1.4
2022-12-09T11:56:05.100Z,1.4
2022-12-09T11:57:12.301Z,1.4
2022-12-09T11:58:19.300Z,1.5
2022-12-09T11:59:25.923Z,1.4
2022-12-09T12:00:33.014Z,1.4
2022-12-09T12:02:47.315Z,1.5
2022-12-09T12:03:54.320Z,1.5
2022-12-09T12:05:00.872Z,1.5
2022-12-09T12:06:08.013Z,1.5
2022-12-09T12:07:15.136Z,1.5
2022-12-09T12:08:22.335Z,1.5
2022-12-09T12:09:29.370Z,1.5
2022-12-09T12:10:35.922Z,1.6
2022-12-09T12:11:43.048Z,1.6
2022-12-09T12:12:50.189Z,1.6
2022-12-09T12:13:57.205Z,1.6
2022-12-09T12:15:04.329Z,1.6
2022-12-09T12:16:10.949Z,1.6
2022-12-09T12:17:18.116Z,1.6
2022-12-09T12:19:32.251Z,1.7
2022-12-09T12:20:39.411Z,1.7
2022-12-09T12:21:45.962Z,1.7
2022-12-09T12:22:55.098Z,1.7
2022-12-09T12:24:00.161Z,1.7
2022-12-09T12:25:09.899Z,1.7
2022-12-09T12:26:14.363Z,1.7
2022-12-09T12:27:21.001Z,1.7
2022-12-09T12:28:28.021Z,1.7
2022-12-09T12:29:35.146Z,1.7
2022-12-09T12:30:42.300Z,1.7
2022-12-09T12:31:49.371Z,1.8
2022-12-09T12:33:40.792Z,1.8
2022-12-09T12:34:25.074Z,1.8
2022-12-09T12:35:10.149Z,1.8
2022-12-09T12:36:17.248Z,1.8
2022-12-09T12:37:24.962Z,1.8
2022-12-09T12:38:30.965Z,1.8
2022-12-09T12:39:38.047Z,1.8
2022-12-09T12:40:45.184Z,1.8
2022-12-09T12:41:52.293Z,1.8
2022-12-09T12:44:06.007Z,1.8
2022-12-09T12:45:13.122Z,1.8
2022-12-09T12:46:20.482Z,1.8
2022-12-09T12:47:27.276Z,1.8
2022-12-09T12:48:34.480Z,1.8
2022-12-09T12:49:40.961Z,1.8
2022-12-09T12:50:48.061Z,1.8
2022-12-09T12:51:55.177Z,1.8
2022-12-09T12:53:02.339Z,1.8
2022-12-09T12:54:09.362Z,1.8
2022-12-09T12:55:15.973Z,1.8
2022-12-09T12:56:23.107Z,1.8
2022-12-09T12:57:30.222Z,1.8
2022-12-09T12:58:37.290Z,1.8
2022-12-09T12:59:44.409Z,1.8
2022-12-09T13:00:51.004Z,1.8
2022-12-09T13:01:58.143Z,1.8
2022-12-09T13:03:09.252Z,1.8
2022-12-09T13:04:12.302Z,1.8
2022-12-09T13:05:19.401Z,1.8
2022-12-09T13:06:26.019Z,1.8
2022-12-09T13:07:33.170Z,1.8
2022-12-09T13:08:40.180Z,1.8
2022-12-09T13:09:47.303Z,1.8
2022-12-09T13:10:53.891Z,1.8
2022-12-09T13:12:01.060Z,1.8
2022-12-09T13:13:08.102Z,1.8
2022-12-09T13:14:15.240Z,1.8
2022-12-09T13:15:22.323Z,1.8
2022-12-09T13:16:28.957Z,1.8
2022-12-09T13:17:36.072Z,1.8
2022-12-09T13:18:43.132Z,1.8
2022-12-09T13:19:50.195Z,1.8
2022-12-09T13:20:57.317Z,1.8
2022-12-09T13:23:11.054Z,1.8
2022-12-09T13:25:25.264Z,1.8
2022-12-09T13:26:32.365Z,1.8
2022-12-09T13:27:38.942Z,1.8
2022-12-09T13:28:46.039Z,1.8
2022-12-09T13:29:53.156Z,1.8
2022-12-09T13:31:00.279Z,1.8
2022-12-09T13:32:07.393Z,1.8
2022-12-09T13:33:13.932Z,1.8
2022-12-09T13:34:21.058Z,1.8
2022-12-09T13:35:28.117Z,1.8
2022-12-09T13:36:36.680Z,1.8
2022-12-09T13:37:42.390Z,1.8
2022-12-09T13:38:48.929Z,1.8
2022-12-09T13:39:56.050Z,1.8
2022-12-09T13:41:03.668Z,1.8
2022-12-09T13:42:10.208Z,1.8
2022-12-09T13:43:17.358Z,1.8
2022-12-09T13:44:23.939Z,1.8
2022-12-09T13:45:31.039Z,1.8
2022-12-09T13:46:38.211Z,1.8
2022-12-09T13:47:45.321Z,1.8
2022-12-09T13:48:52.381Z,1.8
2022-12-09T13:49:58.908Z,1.8
2022-12-09T13:51:06.049Z,1.8
2022-12-09T13:52:13.222Z,1.8
2022-12-09T13:53:20.286Z,1.8
2022-12-09T13:54:27.360Z,1.8
2022-12-09T13:55:33.914Z,1.7
2022-12-09T13:56:41.082Z,1.7
2022-12-09T13:57:48.129Z,1.7
2022-12-09T14:00:02.541Z,1.6
2022-12-09T14:01:09.020Z,1.6
2022-12-09T14:02:16.199Z,1.6
2022-12-09T14:03:23.198Z,1.6
2022-12-09T14:04:30.291Z,1.6
2022-12-09T14:06:43.981Z,1.6
2022-12-09T14:07:51.248Z,1.6
2022-12-09T14:08:58.179Z,1.7
2022-12-09T14:10:05.667Z,1.6
2022-12-09T14:11:12.392Z,1.6
2022-12-09T14:12:18.993Z,1.6
2022-12-09T14:13:26.120Z,1.6
2022-12-09T14:14:33.172Z,1.7
2022-12-09T14:15:40.334Z,1.6
2022-12-09T14:16:47.409Z,1.6
2022-12-09T14:17:54.061Z,1.6
2022-12-09T14:19:01.106Z,1.6
2022-12-09T14:20:08.347Z,1.6
2022-12-09T14:21:15.289Z,1.6
2022-12-09T14:22:22.398Z,1.6
2022-12-09T14:23:28.962Z,1.5
2022-12-09T14:24:36.142Z,1.5
2022-12-09T14:26:50.297Z,1.4
2022-12-09T14:27:57.471Z,1.4
2022-12-09T14:29:04.050Z,1.4
2022-12-09T14:30:11.424Z,1.4
2022-12-09T14:31:18.204Z,1.4
2022-12-09T14:32:25.376Z,1.4
2022-12-09T14:33:32.427Z,1.4
2022-12-09T14:34:39.003Z,1.4
2022-12-09T14:35:46.112Z,1.4
2022-12-09T14:36:54.722Z,1.4
2022-12-09T14:38:00.319Z,1.4
2022-12-09T14:39:23.868Z,1.4
2022-12-09T14:40:14.090Z,1.4
2022-12-09T14:41:21.122Z,1.4
2022-12-09T14:42:28.262Z,1.4
2022-12-09T14:43:35.348Z,1.4
2022-12-09T14:44:42.949Z,1.4
2022-12-09T14:45:49.099Z,1.4
2022-12-09T14:48:03.240Z,1.4
2022-12-09T14:49:10.321Z,1.4
2022-12-09T14:50:17.443Z,1.4
2022-12-09T14:51:24.080Z,1.4
2022-12-09T14:52:31.203Z,1.4
2022-12-09T14:53:38.240Z,1.4
2022-12-09T14:54:45.338Z,1.4
2022-12-09T14:55:52.441Z,1.3
2022-12-09T14:56:59.021Z,1.3
2022-12-09T14:58:06.194Z,1.3
2022-12-09T14:59:13.269Z,1.3
2022-12-09T15:00:20.357Z,1.3
2022-12-09T15:01:27.424Z,1.2
2022-12-09T15:02:34.200Z,1.2
2022-12-09T15:03:45.785Z,1.2
2022-12-09T15:04:48.349Z,1.2
2022-12-09T15:05:55.392Z,1.3
2022-12-09T15:07:01.944Z,1.2
2022-12-09T15:08:09.216Z,1.2
2022-12-09T15:09:16.183Z,1.2
2022-12-09T15:10:23.303Z,1.2
2022-12-09T15:11:30.377Z,1.1
2022-12-09T15:12:37.470Z,1.1
2022-12-09T15:13:44.100Z,1.1
2022-12-09T15:14:51.167Z,1.1
2022-12-09T15:15:58.297Z,1
2022-12-09T15:17:05.409Z,1
2022-12-09T15:18:12.052Z,1
2022-12-09T15:19:37.007Z,1
2022-12-09T15:20:26.259Z,1
2022-12-09T15:21:33.288Z,1
2022-12-09T15:22:40.473Z,1
2022-12-09T15:23:47.056Z,1
2022-12-09T15:24:54.145Z,1
2022-12-09T15:26:01.186Z,1
2022-12-09T15:30:29.146Z,0.9
2022-12-09T15:31:36.260Z,0.9
2022-12-09T15:32:43.351Z,0.8
2022-12-09T15:33:50.437Z,0.8
2022-12-09T15:34:56.962Z,0.8
2022-12-09T15:36:04.083Z,0.8
2022-12-09T15:37:11.236Z,0.8
2022-12-09T15:38:18.294Z,0.8
2022-12-09T15:39:25.412Z,0.8
2022-12-09T15:40:31.992Z,0.8
2022-12-09T15:41:39.085Z,0.8
2022-12-09T15:42:46.212Z,0.8
2022-12-09T15:43:55.251Z,0.8
2022-12-09T15:45:00.414Z,0.8
2022-12-09T15:46:07.064Z,0.9
2022-12-09T15:47:14.167Z,0.9
2022-12-09T15:48:21.749Z,0.9
2022-12-09T15:49:28.305Z,0.9
2022-12-09T15:50:35.435Z,0.9
2022-12-09T15:51:42.051Z,0.8
2022-12-09T15:52:49.165Z,0.9
2022-12-09T15:53:56.233Z,0.9
2022-12-09T15:55:03.333Z,0.9
2022-12-09T15:56:10.440Z,0.8
2022-12-09T15:57:17.030Z,0.8
2022-12-09T15:58:24.123Z,0.8
2022-12-09T15:59:31.218Z,0.8
2022-12-09T16:00:38.304Z,0.8
2022-12-09T16:01:45.801Z,0.8
2022-12-09T16:02:52.230Z,0.8
2022-12-09T16:03:59.112Z,0.8
2022-12-09T16:05:06.278Z,0.8
2022-12-09T16:06:13.373Z,0.8
2022-12-09T16:07:20.524Z,0.8
2022-12-09T16:08:27.010Z,0.8
2022-12-09T16:10:41.241Z,0.8
2022-12-09T16:11:48.425Z,0.7
2022-12-09T16:12:55.548Z,0.8
2022-12-09T16:14:02.051Z,0.7
2022-12-09T16:15:09.133Z,0.7
2022-12-09T16:16:16.379Z,0.7
2022-12-09T16:17:23.402Z,0.7
2022-12-09T16:18:30.462Z,0.7
2022-12-09T16:19:37.035Z,0.7
2022-12-09T16:20:45.856Z,0.7
2022-12-09T16:21:51.287Z,0.7
2022-12-09T16:22:58.353Z,0.7
2022-12-09T16:24:05.472Z,0.7
2022-12-09T16:25:27.382Z,0.7